Airfield :
LOGIN :

Register | Disclaimer

   EN    FR    IT 

 










Legend :    VFR   Marginal VFR   IFR   Intensive IFR   Very Intensive IFR
Visi :
Ceiling :
>= 8 km
>= 3000ft
5 to 8 km
1000 to 3000 ft
1500m to 5 km
500 to 1000 ft
800 to 1500m
200 to 500 ft
< 800m
< 200 ft
Symbols :   Thunderstorms  Fog  Heavy snow  Heavy precipitations  Wind > 20 kt
SIGMETs :     Misc.  Thunderstorms  Icing  Turbulence  Mountain Waves  Volcanic Ashes






- Airport Elevation : 106 ft
- IATA code : NRN


EDLV - Weeze

EXPIRED METARs :
  • 272220Z 14009KT 9999 OVC024 07/05 Q1011

TAF TAF EDLV
Valid from the 27 at 18:00 until the 28 at 18:00 UTC


271700Z 2718/2818 15009KT 9999 BKN025
TEMPO 2718/2723 RA
BECMG 2802/2805 18004KT
TEMPO 2802/2807 4000 -RADZ BKN010
BECMG 2806/2809 BKN008
PROB40
TEMPO 2807/2818 2500 RADZ BKN004



MET'MAP, your aeronautical weather chart ! - Copyright ORBIFLY December 2007 - Disclaimer

ORBIFLY MET'MAP TEAM :

Programming & Development : Alexandra Zaïnal
Original concept : Baudouin d'Aumeries
Technical & hardware support : Manuel Goepfert
Assistance : Marc-Olivier Méhu




SOURCES & CREDITS :

   NOAA